createdAt,value
2018-08-19T00:20:43.696Z,42.43
2018-08-19T00:23:25.277Z,38.70
2018-08-19T00:26:08.381Z,37.83
2018-08-19T00:28:49.258Z,39.80
2018-08-19T00:31:29.280Z,42.60
2018-08-19T00:34:10.201Z,46.37
2018-08-19T00:36:49.501Z,65.20
2018-08-19T00:39:36.641Z,79.40
2018-08-19T00:42:17.019Z,160.37
2018-08-19T00:44:55.964Z,189.00
2018-08-19T00:47:36.118Z,128.30
2018-08-19T00:50:18.321Z,179.97
2018-08-19T00:52:59.206Z,215.60
2018-08-19T00:55:45.466Z,339.13
2018-08-19T00:58:28.179Z,356.43
2018-08-19T01:01:10.322Z,362.23
2018-08-19T01:03:59.597Z,378.67
2018-08-19T01:06:44.583Z,380.57
2018-08-19T01:09:25.321Z,412.53
2018-08-19T01:12:04.359Z,433.80
2018-08-19T01:14:43.604Z,380.40
2018-08-19T01:17:25.604Z,392.50
2018-08-19T01:20:10.304Z,348.47
2018-08-19T01:22:50.024Z,315.97
2018-08-19T01:25:28.938Z,301.20
2018-08-19T01:28:07.502Z,261.67
2018-08-19T01:30:45.825Z,254.87
2018-08-19T01:33:25.023Z,212.40
2018-08-19T01:36:04.123Z,232.47
2018-08-19T01:38:43.779Z,209.07
2018-08-19T01:41:21.947Z,306.97
2018-08-19T01:44:09.102Z,390.57
2018-08-19T01:46:51.307Z,429.17
2018-08-19T01:49:33.703Z,666.83
2018-08-19T01:52:13.866Z,668.13
2018-08-19T01:54:54.299Z,623.83
2018-08-19T01:57:42.417Z,650.53
2018-08-19T02:00:21.881Z,573.13
2018-08-19T02:03:10.479Z,651.53
2018-08-19T02:05:48.736Z,638.47
2018-08-19T02:08:29.419Z,582.60
2018-08-19T02:11:09.939Z,584.70
2018-08-19T02:13:49.662Z,596.20
2018-08-19T02:16:28.299Z,615.43
2018-08-19T02:19:07.742Z,704.73
2018-08-19T02:21:48.659Z,652.70
2018-08-19T03:30:02.809Z,432.20
2018-08-19T03:32:41.302Z,394.50
2018-08-19T03:35:21.300Z,395.10
2018-08-19T03:38:18.142Z,305.20
2018-08-19T03:40:58.220Z,344.80
2018-08-19T03:43:37.458Z,405.43
2018-08-19T03:46:25.119Z,362.97
2018-08-19T03:49:05.460Z,363.30
2018-08-19T03:51:44.063Z,263.87
2018-08-19T03:54:22.243Z,186.97
2018-08-19T03:57:01.120Z,237.73
2018-08-19T05:23:21.613Z,512.23
2018-08-19T05:26:00.912Z,496.53
2018-08-19T05:28:39.702Z,462.37
2018-08-19T05:31:18.656Z,517.87
2018-08-19T05:33:57.067Z,679.10
2018-08-19T05:36:42.654Z,694.03
2018-08-19T05:39:23.758Z,536.20
2018-08-19T05:42:15.615Z,551.53
2018-08-19T05:44:53.674Z,661.97
2018-08-19T05:47:33.653Z,670.73
2018-08-19T05:50:12.854Z,510.47
2018-08-19T05:52:54.034Z,396.23
2018-08-19T05:55:34.573Z,382.90
2018-08-19T05:58:13.112Z,543.60
2018-08-19T06:01:00.525Z,639.63
2018-08-19T06:03:43.090Z,629.70
2018-08-19T06:06:24.914Z,693.23
2018-08-19T06:09:06.472Z,722.80
2018-08-19T06:11:51.637Z,686.77
2018-08-19T06:14:32.281Z,617.10
2018-08-19T06:17:14.516Z,514.40
2018-08-19T06:19:57.656Z,281.33
2018-08-19T06:22:42.036Z,257.20
2018-08-19T06:25:22.035Z,346.63
2018-08-19T06:28:02.032Z,559.53
2018-08-19T06:30:40.677Z,594.07
2018-08-19T06:33:20.012Z,907.50
2018-08-19T06:35:59.032Z,408.03
2018-08-19T06:38:39.076Z,999.90
2018-08-19T06:41:23.441Z,298.50
2018-08-19T06:44:04.771Z,490.37
2018-08-19T06:46:44.109Z,271.83
2018-08-19T06:49:23.536Z,143.20
2018-08-19T06:52:02.456Z,105.00
2018-08-19T06:54:40.253Z,877.07
2018-08-19T06:57:19.130Z,888.83
2018-08-19T06:59:58.455Z,971.30
2018-08-19T07:02:40.396Z,932.03
2018-08-19T07:17:09.609Z,999.90
2018-08-19T07:19:50.256Z,999.90
2018-08-19T07:22:31.832Z,719.27
2018-08-19T07:25:13.815Z,573.80
2018-08-19T07:27:53.938Z,999.90
2018-08-19T07:30:35.014Z,999.90
2018-08-19T07:33:13.815Z,777.33
2018-08-19T07:35:51.569Z,999.90
2018-08-19T07:38:29.293Z,819.70
2018-08-19T07:41:07.018Z,772.30
2018-08-19T07:43:44.618Z,999.90
2018-08-19T07:46:23.677Z,945.83
2018-08-19T07:49:03.872Z,626.53
2018-08-19T07:51:42.199Z,999.90
2018-08-19T07:54:20.512Z,477.10
2018-08-19T07:56:59.614Z,441.50
2018-08-19T07:59:38.996Z,889.87
2018-08-19T08:02:17.629Z,888.37
2018-08-19T08:04:56.657Z,999.90
2018-08-19T08:07:37.360Z,999.90
2018-08-19T08:10:17.981Z,999.90
2018-08-19T08:13:06.332Z,972.85
2018-08-19T08:15:48.049Z,999.90
2018-08-19T08:18:25.911Z,999.90
2018-08-19T08:21:11.322Z,999.90
2018-08-19T08:23:54.032Z,795.98
2018-08-19T08:26:35.590Z,510.48
2018-08-19T08:29:13.825Z,937.00
2018-08-19T08:32:01.818Z,911.33
2018-08-19T08:34:43.796Z,633.02
2018-08-19T08:37:26.171Z,707.95
2018-08-19T08:40:09.681Z,904.48
2018-08-19T08:42:52.075Z,982.23
2018-08-19T09:33:10.715Z,545.50
2018-08-19T09:35:52.796Z,454.07
2018-08-19T10:17:22.191Z,99.00
2018-08-19T10:20:05.174Z,176.70
2018-08-19T10:22:47.337Z,270.65
2018-08-19T10:25:26.851Z,311.60
2018-08-19T10:28:08.016Z,206.47
2018-08-19T11:24:10.411Z,560.15
2018-08-19T11:26:54.879Z,547.75
2018-08-19T11:29:41.633Z,482.10
2018-08-19T11:32:28.474Z,432.60
2018-08-19T11:35:12.924Z,407.58
2018-08-19T11:37:53.058Z,424.30
2018-08-19T11:40:35.077Z,306.25
2018-08-19T11:43:18.340Z,418.77
2018-08-19T11:45:56.037Z,331.55
2018-08-19T11:48:38.676Z,306.15
2018-08-19T11:51:24.352Z,278.83
2018-08-19T11:54:04.773Z,189.45
2018-08-19T11:56:44.073Z,185.73
2018-08-19T11:59:26.438Z,148.00
2018-08-19T12:02:08.178Z,198.97
2018-08-19T12:04:49.380Z,147.10
2018-08-19T12:07:28.636Z,116.65
2018-08-19T12:10:06.729Z,203.30
2018-08-19T12:12:52.630Z,227.70
2018-08-19T12:15:32.656Z,184.00
2018-08-19T12:18:12.874Z,298.00
2018-08-19T12:20:52.696Z,283.02
2018-08-19T12:23:33.693Z,164.35
2018-08-19T12:26:19.089Z,163.85
2018-08-19T12:28:59.758Z,211.43
2018-08-19T13:10:13.875Z,78.10
2018-08-19T13:13:00.316Z,92.65
2018-08-19T13:15:45.596Z,84.50
2018-08-19T13:18:34.435Z,93.25
2018-08-19T13:21:24.433Z,94.90
2018-08-19T13:24:04.118Z,109.67
2018-08-19T13:26:52.675Z,93.47
2018-08-19T13:29:33.669Z,143.00
2018-08-19T13:32:15.580Z,94.17
2018-08-19T13:34:53.890Z,102.90
2018-08-19T13:37:39.156Z,134.75
2018-08-19T13:40:23.594Z,97.22
2018-08-19T13:43:05.384Z,175.05
2018-08-19T13:45:48.856Z,105.10
2018-08-19T13:48:27.339Z,128.02
2018-08-19T13:51:06.072Z,119.72
2018-08-19T13:53:45.654Z,137.50
2018-08-19T13:56:25.198Z,201.45
2018-08-19T13:59:04.018Z,202.10
2018-08-19T14:01:42.370Z,326.35
2018-08-19T14:04:20.387Z,128.80
2018-08-19T14:06:58.057Z,109.42
2018-08-19T14:09:38.438Z,171.02
2018-08-19T14:12:19.261Z,133.12
2018-08-19T14:15:00.279Z,128.53
2018-08-19T14:17:43.391Z,168.65
2018-08-19T14:20:24.656Z,124.15
2018-08-19T14:23:03.181Z,125.15
2018-08-19T14:25:44.676Z,153.87
2018-08-19T14:28:26.278Z,84.20
2018-08-19T14:31:06.317Z,219.87
2018-08-19T14:33:46.722Z,149.00
2018-08-19T14:36:28.535Z,137.90
2018-08-19T14:39:08.034Z,191.85
2018-08-19T14:41:46.076Z,153.68
2018-08-19T14:44:24.231Z,98.95
2018-08-19T14:47:02.633Z,112.22
2018-08-19T14:49:40.934Z,107.87
2018-08-19T14:52:18.706Z,160.48
2018-08-19T14:54:57.616Z,180.70
2018-08-19T15:00:35.039Z,98.75
2018-08-19T15:03:12.776Z,156.65
2018-08-19T15:06:01.493Z,114.57
2018-08-19T15:08:42.175Z,266.30
2018-08-19T15:11:22.750Z,274.32
2018-08-19T15:14:08.531Z,146.72
2018-08-19T15:16:53.036Z,159.50
2018-08-19T15:19:34.815Z,127.10
2018-08-19T15:22:19.179Z,169.13
2018-08-19T15:25:01.238Z,156.52
2018-08-19T15:27:46.257Z,191.57
2018-08-19T15:30:30.333Z,245.55
2018-08-19T15:33:14.221Z,243.52
2018-08-19T15:35:53.952Z,215.70
2018-08-19T15:38:32.475Z,168.07
2018-08-19T15:41:18.815Z,128.45
2018-08-19T15:44:01.089Z,99.85
2018-08-19T15:46:43.813Z,150.57
2018-08-19T15:49:27.096Z,162.22
2018-08-19T15:52:06.471Z,148.28
2018-08-19T15:54:50.618Z,128.62
2018-08-19T15:57:30.821Z,137.90
2018-08-19T16:00:11.452Z,209.52
2018-08-19T16:02:49.373Z,208.40
2018-08-19T16:05:32.455Z,189.05
2018-08-19T16:08:12.955Z,183.00
2018-08-19T16:10:53.634Z,226.00
2018-08-19T16:13:32.797Z,183.90
2018-08-19T16:16:17.650Z,170.75
2018-08-19T16:18:58.279Z,166.18
2018-08-19T16:21:36.549Z,165.92
2018-08-19T16:24:16.017Z,140.43
2018-08-19T16:26:55.954Z,118.70
2018-08-19T16:29:34.251Z,115.17
2018-08-19T16:32:12.636Z,103.05
2018-08-19T16:34:51.598Z,98.20
2018-08-19T16:37:29.187Z,112.45
2018-08-19T16:40:12.376Z,81.50
2018-08-19T16:42:52.930Z,54.98
2018-08-19T16:45:34.615Z,49.93
2018-08-19T16:48:19.750Z,81.92
2018-08-19T16:50:59.902Z,68.30
2018-08-19T16:53:40.253Z,65.72
2018-08-19T16:56:21.551Z,245.95
2018-08-19T16:59:02.332Z,73.78
2018-08-19T17:01:45.713Z,199.77
2018-08-19T17:04:27.656Z,146.22
2018-08-19T17:07:08.391Z,168.68
2018-08-19T17:09:49.906Z,170.40
2018-08-19T17:12:31.556Z,110.48
2018-08-19T17:15:12.455Z,188.00
2018-08-19T17:17:54.975Z,275.70
2018-08-19T17:20:36.876Z,50.50
2018-08-19T17:23:20.333Z,144.32
2018-08-19T17:26:01.398Z,127.00
2018-08-19T17:28:43.993Z,202.03
2018-08-19T17:31:27.194Z,336.07
2018-08-19T17:34:13.313Z,248.75
2018-08-19T17:36:56.014Z,58.73
2018-08-19T17:39:37.934Z,139.82
2018-08-19T17:42:17.797Z,104.92
2018-08-19T17:45:01.661Z,106.75
2018-08-19T17:47:41.171Z,385.38
2018-08-19T17:50:25.632Z,110.63
2018-08-19T17:53:09.168Z,158.60
2018-08-19T17:55:49.474Z,276.37
2018-08-19T17:58:31.059Z,359.70
2018-08-19T18:01:13.795Z,505.25
2018-08-19T18:03:56.751Z,266.40
2018-08-19T18:06:40.312Z,518.83
2018-08-19T18:09:22.335Z,523.08
2018-08-19T18:12:08.532Z,640.42
2018-08-19T18:14:48.841Z,818.70
2018-08-19T18:17:26.433Z,988.38
2018-08-19T18:20:10.193Z,949.83
2018-08-19T18:22:52.796Z,999.90
2018-08-19T18:25:35.179Z,999.90
2018-08-19T18:28:33.418Z,999.90
2018-08-19T18:31:15.297Z,999.90
2018-08-19T18:34:05.042Z,999.90
2018-08-19T18:36:44.512Z,999.90
2018-08-19T18:39:26.193Z,999.90
2018-08-19T18:42:06.051Z,999.90
2018-08-19T18:44:48.900Z,999.90
2018-08-19T18:47:31.897Z,916.65
2018-08-19T18:50:17.556Z,879.72
2018-08-19T18:53:00.250Z,661.77
2018-08-19T18:55:46.393Z,397.27
2018-08-19T18:58:25.090Z,316.20
2018-08-19T19:01:05.116Z,781.78
2018-08-19T19:03:45.660Z,941.85
2018-08-19T19:06:26.630Z,999.90
2018-08-19T19:09:07.092Z,999.90
2018-08-19T19:11:47.831Z,999.90
2018-08-19T19:14:31.072Z,999.90
2018-08-19T19:17:13.055Z,999.90
2018-08-19T19:19:54.695Z,999.90
2018-08-19T19:22:38.532Z,999.90
2018-08-19T19:25:21.051Z,999.90
2018-08-19T19:28:02.912Z,999.90
2018-08-19T19:30:43.927Z,999.90
2018-08-19T19:33:26.674Z,999.90
2018-08-19T19:36:09.875Z,999.90
2018-08-19T19:38:55.811Z,999.90
2018-08-19T19:41:37.716Z,999.90
2018-08-19T19:44:35.883Z,999.90
2018-08-19T19:47:17.919Z,974.58
2018-08-19T19:50:01.822Z,798.30
2018-08-19T19:52:54.299Z,761.37
2018-08-19T19:55:38.552Z,840.97
2018-08-19T19:58:20.149Z,936.50
2018-08-19T20:01:08.957Z,999.90
2018-08-19T20:03:59.255Z,999.90
2018-08-19T20:06:41.769Z,999.90
2018-08-19T21:54:05.380Z,299.53
2018-08-19T21:56:47.701Z,192.03
2018-08-19T21:59:29.520Z,77.30
2018-08-19T22:02:11.643Z,80.97
2018-08-19T22:04:54.557Z,171.03
2018-08-19T22:07:33.005Z,514.83
2018-08-19T22:10:13.454Z,522.53
2018-08-19T22:12:53.981Z,317.10
2018-08-19T22:15:42.555Z,366.00
2018-08-19T22:18:24.702Z,131.77
2018-08-19T22:21:36.658Z,115.00
2018-08-19T22:24:14.842Z,113.27
2018-08-19T22:26:58.157Z,133.93
2018-08-19T22:29:37.903Z,180.17
2018-08-19T22:32:18.080Z,255.87
2018-08-19T22:34:56.864Z,411.40
2018-08-19T22:37:35.837Z,710.47
